createdAt,value
2023-01-02T00:00:04.861Z,100309.65
2023-01-02T00:01:11.837Z,100308.80
2023-01-02T00:02:14.250Z,100309.65
2023-01-02T00:03:17.746Z,100301.62
2023-01-02T00:04:20.483Z,100308.80
2023-01-02T00:05:23.675Z,100312.33
2023-01-02T00:06:27.281Z,100315.89
2023-01-02T00:07:30.277Z,100317.69
2023-01-02T00:08:32.714Z,100315.79
2023-01-02T00:09:35.013Z,100312.23
2023-01-02T00:10:37.815Z,100297.98
2023-01-02T00:11:40.787Z,100297.98
2023-01-02T00:12:43.124Z,100309.55
2023-01-02T00:13:45.506Z,100309.65
2023-01-02T00:14:47.695Z,100314.06
2023-01-02T00:15:50.313Z,100311.37
2023-01-02T00:16:54.467Z,100309.55
2023-01-02T00:17:57.762Z,100314.91
2023-01-02T00:19:00.764Z,100305.08
2023-01-02T00:20:07.191Z,100311.28
2023-01-02T00:21:09.652Z,100311.28
2023-01-02T00:22:12.341Z,100300.56
2023-01-02T00:23:14.787Z,100314.84
2023-01-02T00:24:18.098Z,100304.13
2023-01-02T00:25:20.339Z,100308.50
2023-01-02T00:26:23.493Z,100313.01
2023-01-02T00:27:26.384Z,100304.13
2023-01-02T00:28:32.297Z,100314.84
2023-01-02T00:29:34.676Z,100315.69
2023-01-02T00:30:38.779Z,100321.05
2023-01-02T00:31:42.579Z,100316.53
2023-01-02T00:32:45.187Z,100319.22
2023-01-02T00:33:48.605Z,100320.20
2023-01-02T00:34:50.943Z,100321.89
2023-01-02T00:35:53.362Z,100318.37
2023-01-02T00:36:56.430Z,100320.20
2023-01-02T00:37:59.474Z,100319.22
2023-01-02T00:39:01.936Z,100320.09
2023-01-02T00:40:06.794Z,100320.95
2023-01-02T00:41:11.532Z,100318.27
2023-01-02T00:42:14.590Z,100321.80
2023-01-02T00:43:17.173Z,100320.00
2023-01-02T00:44:19.631Z,100325.35
2023-01-02T00:45:22.178Z,100323.52
2023-01-02T00:46:26.746Z,100319.89
2023-01-02T00:47:30.328Z,100325.25
2023-01-02T00:48:33.751Z,100319.89
2023-01-02T00:49:36.668Z,100324.30
2023-01-02T00:50:43.163Z,100321.63
2023-01-02T00:51:45.528Z,100315.28
2023-01-02T00:52:47.982Z,100314.44
2023-01-02T00:53:52.901Z,100315.28
2023-01-02T00:54:55.715Z,100324.20
2023-01-02T00:55:59.381Z,100325.16
2023-01-02T00:57:02.020Z,100326.88
2023-01-02T00:58:04.566Z,100323.32
2023-01-02T00:59:09.107Z,100316.16
2023-01-02T01:00:18.404Z,100327.63
2023-01-02T01:01:18.502Z,100322.27
2023-01-02T01:02:21.161Z,100316.06
2023-01-02T01:03:24.205Z,100327.63
2023-01-02T01:04:26.978Z,100319.59
2023-01-02T01:05:29.870Z,100319.59
2023-01-02T01:06:33.716Z,100317.80
2023-01-02T01:07:36.741Z,100322.27
2023-01-02T01:08:39.186Z,100322.27
2023-01-02T01:09:42.034Z,100324.84
2023-01-02T01:10:44.658Z,100332.89
2023-01-02T01:11:47.014Z,100332.98
2023-01-02T01:12:50.177Z,100333.87
2023-01-02T01:13:52.620Z,100335.56
2023-01-02T01:14:54.957Z,100332.04
2023-01-02T01:16:09.349Z,100339.13
2023-01-02T01:17:11.912Z,100332.04
2023-01-02T01:18:14.424Z,100340.92
2023-01-02T01:19:16.729Z,100340.92
2023-01-02T01:20:20.499Z,100337.39
2023-01-02T01:21:22.968Z,100339.23
2023-01-02T01:22:25.422Z,100340.92
2023-01-02T01:23:27.739Z,100342.75
2023-01-02T01:24:30.573Z,100331.19
2023-01-02T01:25:33.189Z,100332.04
2023-01-02T01:26:36.454Z,100308.30
2023-01-02T01:27:38.673Z,100308.30
2023-01-02T01:28:41.467Z,100320.48
2023-01-02T01:29:44.221Z,100324.84
2023-01-02T01:30:47.301Z,100323.05
2023-01-02T01:31:49.565Z,100323.05
2023-01-02T01:32:52.005Z,100325.73
2023-01-02T01:33:55.071Z,100323.91
2023-01-02T01:34:57.353Z,100324.84
2023-01-02T01:36:07.139Z,100320.38
2023-01-02T01:37:09.615Z,100314.13
2023-01-02T01:38:12.133Z,100314.13
2023-01-02T01:39:14.577Z,100315.02
2023-01-02T01:40:17.434Z,100311.45
2023-01-02T01:41:22.151Z,100316.81
2023-01-02T01:42:25.556Z,100315.97
2023-01-02T01:43:48.795Z,100316.81
2023-01-02T01:44:52.890Z,100316.91
2023-01-02T01:45:55.269Z,100329.36
2023-01-02T01:46:58.718Z,100327.63
2023-01-02T01:48:01.063Z,100325.83
2023-01-02T01:49:06.358Z,100340.08
2023-01-02T01:51:27.666Z,100337.47
2023-01-02T01:52:30.610Z,100334.72
2023-01-02T01:53:33.186Z,100338.25
2023-01-02T01:54:37.735Z,100339.13
2023-01-02T01:55:49.793Z,100331.09
2023-01-02T01:56:55.390Z,100327.43
2023-01-02T01:57:59.251Z,100339.98
2023-01-02T01:59:01.633Z,100325.63
2023-01-02T02:01:18.376Z,100335.57
2023-01-02T02:02:22.434Z,100339.88
2023-01-02T02:03:27.980Z,100341.61
2023-01-02T02:04:30.906Z,100344.28
2023-01-02T02:05:33.304Z,100338.92
2023-01-02T02:06:36.737Z,100340.66
2023-01-02T02:07:40.202Z,100341.50
2023-01-02T02:08:46.434Z,100339.67
2023-01-02T02:09:51.313Z,100342.35
2023-01-02T02:10:55.708Z,100334.22
2023-01-02T02:11:59.044Z,100336.05
2023-01-02T02:13:01.410Z,100328.00
2023-01-02T02:14:04.223Z,100328.95
2023-01-02T02:15:09.505Z,100333.47
2023-01-02T02:16:19.813Z,100342.35
2023-01-02T02:17:29.073Z,100333.47
2023-01-02T02:18:47.511Z,100331.63
2023-01-02T02:21:41.643Z,100337.27
2023-01-02T02:23:23.001Z,100345.23
2023-01-02T02:24:49.265Z,100342.66
2023-01-02T02:26:05.347Z,100355.20
2023-01-02T02:27:28.449Z,100352.63
2023-01-02T02:28:55.944Z,100356.35
2023-01-02T02:31:41.347Z,100361.21
2023-01-02T02:33:17.527Z,100366.39
2023-01-02T02:34:49.442Z,100370.99
2023-01-02T02:36:04.656Z,100371.94
2023-01-02T02:37:31.987Z,100365.73
2023-01-02T02:38:57.578Z,100369.36
2023-01-02T02:41:48.357Z,100366.09
2023-01-02T02:42:57.330Z,100380.17
2023-01-02T02:44:06.909Z,100372.23
2023-01-02T02:46:48.568Z,100376.91
2023-01-02T02:48:12.226Z,100387.42
2023-01-02T02:49:36.254Z,100392.78
2023-01-02T02:50:42.709Z,100393.67
2023-01-02T02:53:11.233Z,100393.76
2023-01-02T02:54:20.259Z,100390.01
2023-01-02T02:55:26.021Z,100396.25
2023-01-02T02:56:28.932Z,100405.13
2023-01-02T02:57:31.423Z,100403.30
2023-01-02T02:58:35.282Z,100404.19
2023-01-02T02:59:37.661Z,100400.56
2023-01-02T03:00:40.537Z,100388.86
2023-01-02T03:01:43.495Z,100394.13
2023-01-02T03:02:46.420Z,100395.00
2023-01-02T03:03:49.087Z,100397.69
2023-01-02T03:06:38.250Z,100393.16
2023-01-02T03:07:47.056Z,100399.22
2023-01-02T03:09:05.137Z,100397.38
2023-01-02T03:10:28.940Z,100397.38
2023-01-02T03:11:56.523Z,100398.23
2023-01-02T03:13:11.753Z,100396.44
2023-01-02T03:14:23.185Z,100395.55
2023-01-02T03:15:46.566Z,100399.12
2023-01-02T03:16:52.737Z,100386.67
2023-01-02T03:18:04.777Z,100395.66
2023-01-02T03:19:16.670Z,100409.15
2023-01-02T03:20:19.362Z,100399.37
2023-01-02T03:21:31.779Z,100401.21
2023-01-02T03:22:36.153Z,100402.06
2023-01-02T03:23:44.856Z,100404.73
2023-01-02T03:24:48.637Z,100411.83
2023-01-02T03:25:51.573Z,100409.15
2023-01-02T03:27:05.307Z,100420.75
2023-01-02T03:28:08.585Z,100431.36
2023-01-02T03:29:14.577Z,100431.36
2023-01-02T03:30:18.916Z,100431.36
2023-01-02T03:31:22.664Z,100434.89
2023-01-02T03:33:45.041Z,100428.78
2023-01-02T03:34:48.202Z,100433.00
2023-01-02T03:35:53.741Z,100428.59
2023-01-02T03:38:17.737Z,100428.58
2023-01-02T03:39:21.921Z,100428.39
2023-01-02T03:41:45.396Z,100424.10
2023-01-02T03:42:52.892Z,100425.71
2023-01-02T03:43:57.297Z,100421.20
2023-01-02T03:45:06.223Z,100424.77
2023-01-02T03:46:34.534Z,100429.23
2023-01-02T03:49:32.223Z,100441.88
2023-01-02T03:50:39.330Z,100439.01
2023-01-02T03:51:41.706Z,100433.75
2023-01-02T03:52:44.005Z,100432.90
2023-01-02T03:53:47.417Z,100444.56
2023-01-02T03:54:49.798Z,100434.80
2023-01-02T03:56:12.341Z,100447.24
2023-01-02T03:57:33.802Z,100446.39
2023-01-02T03:58:59.234Z,100452.60
2023-01-02T04:01:42.560Z,100453.74
2023-01-02T04:02:57.303Z,100455.38
2023-01-02T04:04:15.719Z,100461.69
2023-01-02T04:06:43.840Z,100456.63
2023-01-02T04:07:55.969Z,100457.27
2023-01-02T04:09:10.400Z,100461.78
2023-01-02T04:10:14.452Z,100454.69
2023-01-02T04:11:18.786Z,100465.31
2023-01-02T04:12:21.160Z,100457.27
2023-01-02T04:13:35.330Z,100455.57
2023-01-02T04:14:43.477Z,100459.95
2023-01-02T04:15:46.586Z,100459.00
2023-01-02T04:16:49.367Z,100462.53
2023-01-02T04:17:57.145Z,100465.21
2023-01-02T04:19:04.067Z,100465.21
2023-01-02T04:21:25.302Z,100475.18
2023-01-02T04:22:33.994Z,100483.91
2023-01-02T04:23:42.139Z,100481.13
2023-01-02T04:24:48.138Z,100481.13
2023-01-02T04:27:20.639Z,100484.00
2023-01-02T04:29:37.824Z,100483.05
2023-01-02T04:30:42.514Z,100493.54
2023-01-02T04:31:50.810Z,100487.33
2023-01-02T04:32:53.274Z,100492.59
2023-01-02T04:33:57.298Z,100492.59
2023-01-02T04:35:00.454Z,100490.70
2023-01-02T04:36:10.566Z,100494.33
2023-01-02T04:37:33.217Z,100498.64
2023-01-02T04:38:35.669Z,100502.17
2023-01-02T04:39:38.929Z,100494.13
2023-01-02T04:40:41.575Z,100494.98
2023-01-02T04:41:44.263Z,100498.64
2023-01-02T04:42:46.769Z,100507.53
2023-01-02T04:43:49.776Z,100509.36
2023-01-02T04:44:52.025Z,100510.20
2023-01-02T04:45:54.379Z,100508.37
2023-01-02T04:46:57.577Z,100511.06
2023-01-02T04:48:00.837Z,100519.03
2023-01-02T04:49:03.617Z,100512.80
2023-01-02T04:50:06.794Z,100508.31
2023-01-02T04:51:10.770Z,100515.47
2023-01-02T04:52:13.724Z,100512.80
2023-01-02T04:53:16.702Z,100511.94
2023-01-02T04:54:19.493Z,100517.20
2023-01-02T04:55:24.419Z,100521.72
2023-01-02T04:56:27.757Z,100520.73
2023-01-02T04:57:31.139Z,100519.88
2023-01-02T04:58:34.160Z,100528.77
2023-01-02T04:59:36.614Z,100520.64
2023-01-02T05:00:39.373Z,100526.97
2023-01-02T05:01:42.096Z,100526.88
2023-01-02T05:02:44.772Z,100528.61
2023-01-02T05:03:48.144Z,100519.69
2023-01-02T05:04:50.696Z,100526.78
2023-01-02T05:06:00.360Z,100533.88
2023-01-02T05:07:04.655Z,100528.52
2023-01-02T05:08:10.655Z,100525.83
2023-01-02T05:09:11.304Z,100524.00
2023-01-02T05:10:13.903Z,100535.58
2023-01-02T05:11:17.797Z,100540.94
2023-01-02T05:12:20.244Z,100536.45
2023-01-02T05:13:22.540Z,100533.78
2023-01-02T05:14:24.795Z,100539.14
2023-01-02T05:15:28.668Z,100542.67
2023-01-02T05:16:32.211Z,100537.31
2023-01-02T05:18:48.482Z,100540.98
2023-01-02T05:19:50.671Z,100535.41
2023-01-02T05:20:53.085Z,100545.25
2023-01-02T05:22:13.995Z,100544.30
2023-01-02T05:23:35.031Z,100541.63
2023-01-02T05:24:40.763Z,100552.34
2023-01-02T05:25:47.810Z,100533.47
2023-01-02T05:26:50.700Z,100545.25
2023-01-02T05:27:54.262Z,100555.97
2023-01-02T05:28:56.684Z,100549.77
2023-01-02T05:29:59.205Z,100553.39
2023-01-02T05:31:01.671Z,100553.39
2023-01-02T05:32:06.778Z,100550.70
2023-01-02T05:33:09.612Z,100552.54
2023-01-02T05:34:13.933Z,100552.54
2023-01-02T05:35:16.309Z,100560.58
2023-01-02T05:36:20.164Z,100556.16
2023-01-02T05:37:22.659Z,100554.33
2023-01-02T05:38:25.792Z,100562.37
2023-01-02T05:39:28.234Z,100564.20
2023-01-02T05:40:31.711Z,100571.39
2023-01-02T05:41:34.635Z,100571.39
2023-01-02T05:42:37.174Z,100562.47
2023-01-02T05:43:40.454Z,100573.19
2023-01-02T05:44:43.835Z,100565.15
2023-01-02T05:45:46.623Z,100575.87
2023-01-02T05:46:49.323Z,100575.87
2023-01-02T05:47:52.635Z,100573.19
2023-01-02T05:48:54.996Z,100575.02
2023-01-02T05:49:58.340Z,100568.81
2023-01-02T05:51:03.185Z,100568.81
2023-01-02T05:52:05.544Z,100579.44
2023-01-02T05:53:08.273Z,100566.03
2023-01-02T05:54:10.605Z,100570.52
2023-01-02T05:55:12.957Z,100570.52
2023-01-02T05:56:20.581Z,100564.30
2023-01-02T05:57:23.017Z,100563.45
2023-01-02T05:58:27.271Z,100558.09
2023-01-02T05:59:29.989Z,100561.62
2023-01-02T06:00:32.763Z,100557.11
2023-01-02T06:01:35.385Z,100559.80
2023-01-02T06:02:38.023Z,100558.94
2023-01-02T06:03:46.172Z,100566.03
2023-01-02T06:04:48.827Z,100558.09
2023-01-02T06:05:52.346Z,100558.94
2023-01-02T06:06:55.167Z,100547.62
2023-01-02T06:07:57.759Z,100547.62
2023-01-02T06:09:00.838Z,100561.62
2023-01-02T06:10:04.822Z,100563.35
2023-01-02T06:11:08.259Z,100566.03
2023-01-02T06:12:31.137Z,100563.35
2023-01-02T06:13:22.263Z,100554.43
2023-01-02T06:14:26.621Z,100559.80
2023-01-02T06:15:29.288Z,100558.84
2023-01-02T06:16:32.254Z,100559.80
2023-01-02T06:17:37.379Z,100567.83
2023-01-02T06:18:40.117Z,100563.35
2023-01-02T06:19:43.580Z,100565.15
2023-01-02T06:20:46.884Z,100572.34
2023-01-02T06:21:49.194Z,100572.34
2023-01-02T06:22:52.113Z,100577.70
2023-01-02T06:25:10.754Z,100581.54
2023-01-02T06:26:15.645Z,100578.55
2023-01-02T06:27:19.622Z,100581.23
2023-01-02T06:28:23.020Z,100578.64
2023-01-02T06:29:25.367Z,100585.73
2023-01-02T06:30:28.347Z,100585.73
2023-01-02T06:31:32.723Z,100578.55
2023-01-02T06:32:35.495Z,100574.92
2023-01-02T06:33:37.996Z,100577.60
2023-01-02T06:34:42.180Z,100580.28
2023-01-02T06:35:45.646Z,100582.87
2023-01-02T06:36:48.317Z,100585.55
2023-01-02T06:37:50.720Z,100582.02
2023-01-02T06:38:53.632Z,100590.91
2023-01-02T06:39:56.815Z,100590.91
2023-01-02T06:41:00.121Z,100588.23
2023-01-02T06:42:02.860Z,100594.44
2023-01-02T06:43:07.129Z,100602.48
2023-01-02T06:45:25.672Z,100592.09
2023-01-02T06:46:28.210Z,100603.36
2023-01-02T06:47:31.800Z,100601.62
2023-01-02T06:48:34.410Z,100600.68
2023-01-02T06:49:36.699Z,100596.17
2023-01-02T06:50:39.628Z,100603.36
2023-01-02T06:51:42.088Z,100605.09
2023-01-02T06:52:45.124Z,100604.21
2023-01-02T06:53:47.898Z,100605.95
2023-01-02T06:54:50.698Z,100606.89
2023-01-02T06:55:57.157Z,100610.45
2023-01-02T06:56:59.721Z,100611.30
2023-01-02T06:58:09.238Z,100611.40
2023-01-02T06:59:07.896Z,100612.25
2023-01-02T07:00:11.693Z,100621.17
2023-01-02T07:01:19.301Z,100621.17
2023-01-02T07:02:22.012Z,100622.03
2023-01-02T07:03:24.847Z,100627.39
2023-01-02T07:04:28.086Z,100627.39
2023-01-02T07:05:31.557Z,100630.06
2023-01-02T07:06:35.073Z,100625.56
2023-01-02T07:07:38.023Z,100626.44
2023-01-02T07:08:42.319Z,100617.52
2023-01-02T07:09:44.809Z,100610.14
2023-01-02T07:10:52.857Z,100610.14
2023-01-02T07:11:54.281Z,100625.56
2023-01-02T07:12:57.266Z,100623.76
2023-01-02T07:13:59.627Z,100621.08
2023-01-02T07:15:04.679Z,100622.03
2023-01-02T07:16:09.174Z,100625.56
2023-01-02T07:17:11.981Z,100628.23
2023-01-02T07:18:16.541Z,100623.76
2023-01-02T07:19:20.576Z,100629.12
2023-01-02T07:20:23.674Z,100630.06
2023-01-02T07:21:26.753Z,100630.91
2023-01-02T07:22:30.734Z,100626.44
2023-01-02T07:23:33.108Z,100622.88
2023-01-02T07:24:35.608Z,100620.20
2023-01-02T07:25:44.074Z,100630.83
2023-01-02T07:26:42.318Z,100634.48
2023-01-02T07:27:44.604Z,100632.66
2023-01-02T07:28:47.734Z,100633.50
2023-01-02T07:29:50.734Z,100631.70
2023-01-02T07:31:01.794Z,100631.80
2023-01-02T07:32:05.639Z,100632.66
2023-01-02T07:33:09.907Z,100638.86
2023-01-02T07:34:13.045Z,100639.84
2023-01-02T07:35:18.255Z,100635.33
2023-01-02T07:36:24.237Z,100638.86
2023-01-02T07:37:27.997Z,100640.69
2023-01-02T07:38:30.726Z,100645.11
2023-01-02T07:39:33.169Z,100643.38
2023-01-02T07:40:35.891Z,100643.38
2023-01-02T07:41:39.874Z,100642.42
2023-01-02T07:42:45.783Z,100644.22
2023-01-02T07:43:48.808Z,100647.79
2023-01-02T07:44:51.225Z,100647.79
2023-01-02T07:45:54.480Z,100644.22
2023-01-02T07:46:56.997Z,100649.58
2023-01-02T07:48:01.346Z,100645.11
2023-01-02T07:49:04.939Z,100644.22
2023-01-02T07:50:08.374Z,100643.28
2023-01-02T07:51:11.263Z,100643.28
2023-01-02T07:52:14.348Z,100643.28
2023-01-02T07:53:17.096Z,100649.52
2023-01-02T07:54:20.369Z,100641.48
2023-01-02T07:55:23.301Z,100639.94
2023-01-02T07:56:26.247Z,100639.94
2023-01-02T07:57:31.733Z,100648.64
2023-01-02T07:58:35.308Z,100659.36
2023-01-02T07:59:38.154Z,100655.73
2023-01-02T08:00:41.227Z,100650.37
2023-01-02T08:01:43.722Z,100653.05
2023-01-02T08:02:48.600Z,100657.47
2023-01-02T08:03:52.140Z,100653.91
2023-01-02T08:04:55.001Z,100661.84
2023-01-02T08:06:08.745Z,100657.47
2023-01-02T08:07:11.761Z,100666.36
2023-01-02T08:08:14.956Z,100659.27
2023-01-02T08:09:17.562Z,100659.27
2023-01-02T08:10:20.733Z,100660.15
2023-01-02T08:11:24.178Z,100661.95
2023-01-02T08:12:28.208Z,100657.47
2023-01-02T08:13:31.621Z,100662.83
2023-01-02T08:14:36.710Z,100661.95
2023-01-02T08:15:39.086Z,100661.95
2023-01-02T08:16:43.040Z,100662.83
2023-01-02T08:17:45.775Z,100662.83
2023-01-02T08:18:54.936Z,100662.83
2023-01-02T08:20:00.346Z,100661.00
2023-01-02T08:21:02.143Z,100667.21
2023-01-02T08:22:06.221Z,100661.84
2023-01-02T08:23:09.544Z,100662.83
2023-01-02T08:24:12.374Z,100661.84
2023-01-02T08:25:15.349Z,100663.68
2023-01-02T08:26:17.974Z,100671.72
2023-01-02T08:27:21.131Z,100664.53
2023-01-02T08:28:24.899Z,100666.36
2023-01-02T08:29:29.250Z,100669.05
2023-01-02T08:30:31.853Z,100664.53
2023-01-02T08:31:40.014Z,100668.09
2023-01-02T08:32:40.161Z,100660.91
2023-01-02T08:33:42.523Z,100664.53
2023-01-02T08:34:44.999Z,100668.09
2023-01-02T08:35:47.340Z,100668.95
2023-01-02T08:36:50.551Z,100672.51
2023-01-02T08:37:54.124Z,100670.77
2023-01-02T08:38:57.192Z,100675.19
2023-01-02T08:39:59.520Z,100666.27
2023-01-02T08:41:02.086Z,100673.36
2023-01-02T08:42:04.783Z,100669.83
2023-01-02T08:43:08.446Z,100673.36
2023-01-02T08:44:12.244Z,100668.00
2023-01-02T08:45:15.292Z,100674.22
2023-01-02T08:46:19.045Z,100668.85
2023-01-02T08:47:23.284Z,100658.13
2023-01-02T08:48:26.092Z,100672.33
2023-01-02T08:49:29.401Z,100659.95
2023-01-02T08:50:33.202Z,100671.53
2023-01-02T08:51:36.132Z,100662.55
2023-01-02T08:52:38.303Z,100663.40
2023-01-02T08:53:40.491Z,100663.40
2023-01-02T08:54:43.630Z,100660.72
2023-01-02T08:55:46.538Z,100662.45
2023-01-02T08:56:49.110Z,100659.77
2023-01-02T08:57:51.377Z,100664.19
2023-01-02T08:58:56.677Z,100663.30
2023-01-02T08:59:59.249Z,100666.86
2023-01-02T09:01:01.817Z,100661.50
2023-01-02T09:02:04.481Z,100657.87
2023-01-02T09:03:08.113Z,100663.23
2023-01-02T09:04:12.804Z,100659.58
2023-01-02T09:05:15.299Z,100659.58
2023-01-02T09:06:22.318Z,100651.53
2023-01-02T09:07:25.073Z,100655.10
2023-01-02T09:08:29.548Z,100655.95
2023-01-02T09:09:32.238Z,100647.91
2023-01-02T09:10:35.644Z,100651.38
2023-01-02T09:11:40.061Z,100644.28
2023-01-02T09:12:43.137Z,100645.13
2023-01-02T09:13:47.590Z,100641.60
2023-01-02T09:14:51.962Z,100648.70
2023-01-02T09:15:56.108Z,100651.44
2023-01-02T09:17:00.092Z,100646.87
2023-01-02T09:18:03.804Z,100644.19
2023-01-02T09:19:09.955Z,100641.51
2023-01-02T09:20:15.488Z,100641.51
2023-01-02T09:21:17.952Z,100639.67
2023-01-02T09:22:22.325Z,100643.23
2023-01-02T09:23:24.911Z,100637.00
2023-01-02T09:24:29.245Z,100636.14
2023-01-02T09:25:31.939Z,100631.63
2023-01-02T09:26:36.884Z,100637.88
2023-01-02T09:27:41.655Z,100639.67
2023-01-02T09:28:45.017Z,100641.41
2023-01-02T09:29:47.640Z,100637.88
2023-01-02T09:30:51.352Z,100629.84
2023-01-02T09:31:55.937Z,100627.16
2023-01-02T09:32:58.467Z,100630.69
2023-01-02T09:34:02.042Z,100627.16
2023-01-02T09:35:06.390Z,100636.90
2023-01-02T09:36:10.488Z,100626.17
2023-01-02T09:37:13.752Z,100623.49
2023-01-02T09:38:17.217Z,100616.53
2023-01-02T09:39:20.893Z,100623.49
2023-01-02T09:40:24.027Z,100623.49
2023-01-02T09:41:45.086Z,100623.49
2023-01-02T09:42:48.983Z,100624.38
2023-01-02T09:43:53.658Z,100627.06
2023-01-02T09:44:56.977Z,100625.33
2023-01-02T09:46:00.707Z,100624.47
2023-01-02T09:47:11.889Z,100627.16
2023-01-02T09:49:32.214Z,100622.20
2023-01-02T09:50:34.766Z,100622.84
2023-01-02T09:51:37.687Z,100621.01
2023-01-02T09:52:44.548Z,100633.66
2023-01-02T09:53:47.452Z,100626.56
2023-01-02T09:54:51.592Z,100632.87
2023-01-02T09:55:59.502Z,100630.19
2023-01-02T09:57:30.615Z,100632.97
2023-01-02T09:58:55.831Z,100628.55
2023-01-02T10:00:15.365Z,100639.27
2023-01-02T10:01:33.839Z,100635.93
2023-01-02T10:02:55.074Z,100630.66
2023-01-02T10:04:08.507Z,100633.50
2023-01-02T10:05:32.733Z,100638.11
2023-01-02T10:08:15.991Z,100641.30
2023-01-02T10:09:39.219Z,100641.16
2023-01-02T10:10:44.193Z,100639.43
2023-01-02T10:12:02.392Z,100641.32
2023-01-02T10:13:44.225Z,100640.47
2023-01-02T10:15:53.417Z,100642.68
2023-01-02T10:16:58.250Z,100642.55
2023-01-02T10:18:07.247Z,100645.32
2023-01-02T10:19:15.311Z,100644.47
2023-01-02T10:20:28.445Z,100636.43
2023-01-02T10:21:36.549Z,100642.64
2023-01-02T10:22:42.613Z,100639.11
2023-01-02T10:23:50.059Z,100638.16
2023-01-02T10:26:19.522Z,100640.19
2023-01-02T10:27:24.696Z,100636.34
2023-01-02T10:28:34.444Z,100634.60
2023-01-02T10:29:45.784Z,100628.30
2023-01-02T10:30:52.577Z,100629.05
2023-01-02T10:32:03.795Z,100631.64
2023-01-02T10:33:12.487Z,100636.05
2023-01-02T10:34:18.086Z,100632.34
2023-01-02T10:35:36.704Z,100633.98
2023-01-02T10:36:41.654Z,100629.47
2023-01-02T10:37:44.919Z,100629.38
2023-01-02T10:38:48.610Z,100624.89
2023-01-02T10:39:52.548Z,100626.59
2023-01-02T10:40:56.221Z,100625.65
2023-01-02T10:41:59.272Z,100624.70
2023-01-02T10:43:02.377Z,100622.88
2023-01-02T10:44:14.795Z,100625.46
2023-01-02T10:45:19.505Z,100619.16
2023-01-02T10:47:42.559Z,100624.57
2023-01-02T10:48:51.904Z,100633.25
2023-01-02T10:49:50.074Z,100626.06
2023-01-02T10:50:55.667Z,100633.16
2023-01-02T10:52:05.008Z,100634.00
2023-01-02T10:55:00.164Z,100616.53
2023-01-02T10:56:03.707Z,100616.03
2023-01-02T10:57:10.352Z,100625.87
2023-01-02T10:58:19.806Z,100616.13
2023-01-02T10:59:24.309Z,100621.39
2023-01-02T11:00:29.781Z,100619.75
2023-01-02T11:01:32.645Z,100611.62
2023-01-02T11:02:39.391Z,100614.30
2023-01-02T11:03:42.017Z,100614.30
2023-01-02T11:04:45.287Z,100622.34
2023-01-02T11:05:52.980Z,100612.56
2023-01-02T11:07:02.895Z,100624.27
2023-01-02T11:08:15.974Z,100623.37
2023-01-02T11:09:24.849Z,100626.06
2023-01-02T11:10:31.500Z,100625.11
2023-01-02T11:11:34.672Z,100625.11
2023-01-02T11:12:48.723Z,100625.11
2023-01-02T11:13:54.657Z,100633.06
2023-01-02T11:15:13.353Z,100625.87
2023-01-02T11:16:16.346Z,100626.75
2023-01-02T11:17:20.405Z,100637.37
2023-01-02T11:18:32.014Z,100633.75
2023-01-02T11:21:02.180Z,100626.77
2023-01-02T11:22:05.427Z,100632.77
2023-01-02T11:23:12.427Z,100632.67
2023-01-02T11:24:18.853Z,100639.77
2023-01-02T11:25:23.617Z,100635.30
2023-01-02T11:26:26.972Z,100629.84
2023-01-02T11:28:52.538Z,100629.09
2023-01-02T11:29:54.871Z,100629.64
2023-01-02T11:31:08.892Z,100628.80
2023-01-02T11:32:14.153Z,100632.33
2023-01-02T11:33:33.923Z,100631.38
2023-01-02T11:34:39.494Z,100632.33
2023-01-02T11:35:48.752Z,100636.74
2023-01-02T11:37:04.516Z,100629.55
2023-01-02T11:38:29.723Z,100632.23
2023-01-02T11:39:26.199Z,100629.55
2023-01-02T11:40:30.512Z,100628.60
2023-01-02T11:42:08.917Z,100631.28
2023-01-02T11:43:30.371Z,100628.60
2023-01-02T11:44:45.753Z,100628.60
2023-01-02T11:45:48.138Z,100633.97
2023-01-02T11:46:52.292Z,100634.06
2023-01-02T11:48:01.533Z,100644.78
2023-01-02T11:49:16.934Z,100626.97
2023-01-02T11:50:23.387Z,100634.16
2023-01-02T11:51:26.375Z,100627.91
2023-01-02T11:52:55.360Z,100619.87
2023-01-02T11:53:57.716Z,100626.97
2023-01-02T11:55:07.295Z,100615.39
2023-01-02T11:57:49.482Z,100605.91
2023-01-02T11:59:05.054Z,100606.46
2023-01-02T12:00:11.114Z,100599.30
2023-01-02T12:01:35.307Z,100598.42
2023-01-02T12:02:42.678Z,100593.94
2023-01-02T12:03:45.178Z,100591.16
2023-01-02T12:04:47.588Z,100596.52
2023-01-02T12:06:19.819Z,100596.52
2023-01-02T12:07:46.289Z,100583.12
2023-01-02T12:08:58.415Z,100586.65
2023-01-02T12:10:16.744Z,100576.78
2023-01-02T12:11:34.839Z,100575.08
2023-01-02T12:12:47.476Z,100570.66
2023-01-02T12:14:10.578Z,100572.39
2023-01-02T12:15:19.831Z,100575.73
2023-01-02T12:16:38.273Z,100577.27
2023-01-02T12:18:17.885Z,100575.27
2023-01-02T12:19:29.320Z,100583.16
2023-01-02T12:22:22.209Z,100579.15
2023-01-02T12:24:02.594Z,100577.88
2023-01-02T12:25:25.582Z,100576.83
2023-01-02T12:26:33.216Z,100581.14
2023-01-02T12:27:43.190Z,100590.83
2023-01-02T12:29:07.920Z,100580.95
2023-01-02T12:31:33.238Z,100575.39
2023-01-02T12:32:43.735Z,100583.16
2023-01-02T12:34:15.644Z,100579.49
2023-01-02T12:35:54.125Z,100583.91
2023-01-02T12:37:15.593Z,100589.08
2023-01-02T12:38:33.172Z,100584.49
2023-01-02T12:39:36.748Z,100591.59
2023-01-02T12:41:04.228Z,100581.70
2023-01-02T12:42:36.796Z,100590.61
2023-01-02T12:43:45.457Z,100590.50
2023-01-02T12:44:50.637Z,100586.97
2023-01-02T12:46:13.582Z,100592.34
2023-01-02T12:47:35.026Z,100601.23
2023-01-02T12:49:02.126Z,100597.60
2023-01-02T12:50:17.230Z,100586.88
2023-01-02T12:51:25.919Z,100593.13
2023-01-02T12:52:54.114Z,100601.92
2023-01-02T12:54:19.888Z,100596.55
2023-01-02T12:55:22.646Z,100597.41
2023-01-02T12:56:28.978Z,100602.77
2023-01-02T12:57:55.364Z,100609.13
2023-01-02T13:00:38.506Z,100601.34
2023-01-02T13:01:50.384Z,100604.70
2023-01-02T13:03:09.155Z,100602.13
2023-01-02T13:04:23.803Z,100606.61
2023-01-02T13:05:29.563Z,100603.08
2023-01-02T13:06:46.872Z,100599.54
2023-01-02T13:07:52.112Z,100593.39
2023-01-02T13:09:04.694Z,100597.91
2023-01-02T13:10:11.127Z,100594.38
2023-01-02T13:11:16.777Z,100594.38
2023-01-02T13:12:26.306Z,100598.86
2023-01-02T13:13:32.106Z,100594.44
2023-01-02T13:14:56.940Z,100595.33
2023-01-02T13:16:03.713Z,100600.69
2023-01-02T13:19:00.747Z,100606.23
2023-01-02T13:20:05.780Z,100607.86
2023-01-02T13:21:14.697Z,100609.69
2023-01-02T13:23:51.302Z,100605.55
2023-01-02T13:24:54.822Z,100612.47
2023-01-02T13:26:00.493Z,100610.73
2023-01-02T13:27:04.339Z,100611.69
2023-01-02T13:28:09.424Z,100606.42
2023-01-02T13:29:17.199Z,100609.98